MII weather

Frank Miloye Milenkowichi–Marília State Airport
Marília, São Paulo, Brazil

Public forecast

Using degrees Celsius for public forecast. Weather courtesy of forecast.io.

Current aviation weather report (METAR) for Frank Miloye Milenkowichi–Marília State Airport

Report is more than 6 hours old.

Retrieved 2020/03/20 19:00 UTC (3 months ago):

SBML 201900Z 22008KT 9999 BKN040 FEW045TCU 25/23 Q1009

Closest aviation forecast (TAF) to Frank Miloye Milenkowichi–Marília State Airport

Closest forecast is Bauru Airport, 49.3 nm (91.3 km) E. Retrieved 2020/07/02 18:42 UTC (27 minutes ago):

TAF SBBU 021500Z 0218/0306 32005KT CAVOK TX19/0218Z TN08/0306Z RMK PDZ